sensor_id;sensor_type;location;lat;lon;timestamp;P1;durP1;ratioP1;P2;durP2;ratioP2
66587;SDS011;53446;50.076;8.198;2023-03-01T00:00:34;16.05;;;7.50;;
66587;SDS011;53446;50.076;8.198;2023-03-01T00:02:34;16.00;;;6.83;;
66587;SDS011;53446;50.076;8.198;2023-03-01T00:04:35;13.13;;;6.83;;
66587;SDS011;53446;50.076;8.198;2023-03-01T00:06:35;15.23;;;7.07;;
66587;SDS011;53446;50.076;8.198;2023-03-01T00:08:36;15.15;;;6.82;;
66587;SDS011;53446;50.076;8.198;2023-03-01T00:10:37;12.98;;;6.13;;
66587;SDS011;53446;50.076;8.198;2023-03-01T00:12:37;13.07;;;6.72;;
66587;SDS011;53446;50.076;8.198;2023-03-01T00:14:37;13.43;;;6.80;;
66587;SDS011;53446;50.076;8.198;2023-03-01T00:16:39;14.80;;;6.33;;
66587;SDS011;53446;50.076;8.198;2023-03-01T00:18:41;13.35;;;6.63;;
66587;SDS011;53446;50.076;8.198;2023-03-01T00:20:41;15.53;;;7.90;;
66587;SDS011;53446;50.076;8.198;2023-03-01T00:22:42;16.10;;;7.47;;
66587;SDS011;53446;50.076;8.198;2023-03-01T00:24:42;13.83;;;7.00;;
66587;SDS011;53446;50.076;8.198;2023-03-01T00:26:42;15.83;;;7.63;;
66587;SDS011;53446;50.076;8.198;2023-03-01T00:28:43;14.75;;;6.25;;
66587;SDS011;53446;50.076;8.198;2023-03-01T00:30:43;14.17;;;6.80;;
66587;SDS011;53446;50.076;8.198;2023-03-01T00:32:43;14.13;;;6.80;;
66587;SDS011;53446;50.076;8.198;2023-03-01T00:34:44;13.57;;;7.00;;
66587;SDS011;53446;50.076;8.198;2023-03-01T00:36:54;16.63;;;6.82;;
66587;SDS011;53446;50.076;8.198;2023-03-01T00:38:54;15.60;;;7.27;;
66587;SDS011;53446;50.076;8.198;2023-03-01T00:40:55;17.58;;;7.45;;
66587;SDS011;53446;50.076;8.198;2023-03-01T00:42:55;14.97;;;7.60;;
66587;SDS011;53446;50.076;8.198;2023-03-01T00:44:56;15.50;;;7.60;;
66587;SDS011;53446;50.076;8.198;2023-03-01T00:46:56;16.10;;;7.37;;
66587;SDS011;53446;50.076;8.198;2023-03-01T00:48:56;15.93;;;7.30;;
66587;SDS011;53446;50.076;8.198;2023-03-01T00:50:57;13.93;;;7.13;;
66587;SDS011;53446;50.076;8.198;2023-03-01T00:52:57;15.13;;;6.90;;
66587;SDS011;53446;50.076;8.198;2023-03-01T00:54:57;18.20;;;7.40;;
66587;SDS011;53446;50.076;8.198;2023-03-01T00:56:58;17.27;;;7.27;;
66587;SDS011;53446;50.076;8.198;2023-03-01T00:58:58;15.50;;;7.67;;
66587;SDS011;53446;50.076;8.198;2023-03-01T01:00:58;16.13;;;7.37;;
66587;SDS011;53446;50.076;8.198;2023-03-01T01:02:59;15.82;;;8.00;;
66587;SDS011;53446;50.076;8.198;2023-03-01T01:04:59;15.40;;;7.20;;
66587;SDS011;53446;50.076;8.198;2023-03-01T01:07:00;15.27;;;7.53;;
66587;SDS011;53446;50.076;8.198;2023-03-01T01:09:00;15.40;;;7.47;;
66587;SDS011;53446;50.076;8.198;2023-03-01T01:11:01;14.38;;;6.68;;
66587;SDS011;53446;50.076;8.198;2023-03-01T01:13:01;15.50;;;7.60;;
66587;SDS011;53446;50.076;8.198;2023-03-01T01:15:02;16.27;;;7.50;;
66587;SDS011;53446;50.076;8.198;2023-03-01T01:17:02;17.95;;;8.35;;
66587;SDS011;53446;50.076;8.198;2023-03-01T01:19:03;17.23;;;8.17;;
66587;SDS011;53446;50.076;8.198;2023-03-01T01:21:04;13.77;;;6.90;;
66587;SDS011;53446;50.076;8.198;2023-03-01T01:23:06;15.43;;;7.55;;
66587;SDS011;53446;50.076;8.198;2023-03-01T01:25:07;13.82;;;7.38;;
66587;SDS011;53446;50.076;8.198;2023-03-01T01:27:08;15.98;;;7.00;;
66587;SDS011;53446;50.076;8.198;2023-03-01T01:29:08;17.98;;;8.52;;
66587;SDS011;53446;50.076;8.198;2023-03-01T01:31:09;16.33;;;8.23;;
66587;SDS011;53446;50.076;8.198;2023-03-01T01:33:09;17.33;;;7.73;;
66587;SDS011;53446;50.076;8.198;2023-03-01T01:35:10;16.48;;;7.00;;
66587;SDS011;53446;50.076;8.198;2023-03-01T01:37:10;15.98;;;8.40;;
66587;SDS011;53446;50.076;8.198;2023-03-01T01:39:10;15.63;;;7.83;;
66587;SDS011;53446;50.076;8.198;2023-03-01T01:41:14;15.65;;;7.47;;
66587;SDS011;53446;50.076;8.198;2023-03-01T01:43:19;19.13;;;8.23;;
66587;SDS011;53446;50.076;8.198;2023-03-01T01:45:24;15.95;;;7.68;;
66587;SDS011;53446;50.076;8.198;2023-03-01T01:47:28;17.27;;;7.95;;
66587;SDS011;53446;50.076;8.198;2023-03-01T01:49:38;15.77;;;8.00;;
66587;SDS011;53446;50.076;8.198;2023-03-01T01:51:44;14.77;;;7.45;;
66587;SDS011;53446;50.076;8.198;2023-03-01T01:53:49;18.45;;;8.60;;
66587;SDS011;53446;50.076;8.198;2023-03-01T01:55:52;16.50;;;7.70;;
66587;SDS011;53446;50.076;8.198;2023-03-01T01:57:58;16.40;;;8.10;;
66587;SDS011;53446;50.076;8.198;2023-03-01T02:00:04;17.30;;;8.43;;
66587;SDS011;53446;50.076;8.198;2023-03-01T02:02:07;16.58;;;7.57;;
66587;SDS011;53446;50.076;8.198;2023-03-01T02:04:07;16.83;;;8.30;;
66587;SDS011;53446;50.076;8.198;2023-03-01T02:06:12;17.23;;;7.90;;
66587;SDS011;53446;50.076;8.198;2023-03-01T02:08:16;16.80;;;8.02;;
66587;SDS011;53446;50.076;8.198;2023-03-01T02:10:17;16.48;;;7.68;;
66587;SDS011;53446;50.076;8.198;2023-03-01T02:12:18;17.47;;;8.40;;
66587;SDS011;53446;50.076;8.198;2023-03-01T02:14:20;17.98;;;8.50;;
66587;SDS011;53446;50.076;8.198;2023-03-01T02:16:21;16.43;;;8.53;;
66587;SDS011;53446;50.076;8.198;2023-03-01T02:18:22;15.13;;;7.60;;
66587;SDS011;53446;50.076;8.198;2023-03-01T02:20:30;17.95;;;8.27;;
66587;SDS011;53446;50.076;8.198;2023-03-01T02:22:36;16.75;;;8.70;;
66587;SDS011;53446;50.076;8.198;2023-03-01T02:24:48;17.42;;;8.02;;
66587;SDS011;53446;50.076;8.198;2023-03-01T02:26:57;16.48;;;7.88;;
66587;SDS011;53446;50.076;8.198;2023-03-01T02:28:58;16.10;;;7.87;;
66587;SDS011;53446;50.076;8.198;2023-03-01T02:30:58;14.73;;;7.67;;
66587;SDS011;53446;50.076;8.198;2023-03-01T02:33:17;16.33;;;8.68;;
66587;SDS011;53446;50.076;8.198;2023-03-01T02:35:17;16.17;;;8.70;;
66587;SDS011;53446;50.076;8.198;2023-03-01T02:37:19;16.85;;;8.57;;
66587;SDS011;53446;50.076;8.198;2023-03-01T02:39:28;18.65;;;8.75;;
66587;SDS011;53446;50.076;8.198;2023-03-01T02:41:35;17.05;;;8.27;;
66587;SDS011;53446;50.076;8.198;2023-03-01T02:43:36;18.35;;;8.55;;
66587;SDS011;53446;50.076;8.198;2023-03-01T02:45:36;16.75;;;8.35;;
66587;SDS011;53446;50.076;8.198;2023-03-01T02:47:36;16.63;;;7.57;;
66587;SDS011;53446;50.076;8.198;2023-03-01T02:49:37;17.63;;;8.10;;
66587;SDS011;53446;50.076;8.198;2023-03-01T02:54:21;17.73;;;8.25;;
66587;SDS011;53446;50.076;8.198;2023-03-01T02:56:43;19.17;;;8.85;;
66587;SDS011;53446;50.076;8.198;2023-03-01T02:58:44;18.50;;;8.77;;
66587;SDS011;53446;50.076;8.198;2023-03-01T03:00:51;17.27;;;8.32;;
66587;SDS011;53446;50.076;8.198;2023-03-01T03:02:52;18.70;;;7.87;;
66587;SDS011;53446;50.076;8.198;2023-03-01T03:04:53;18.17;;;8.63;;
66587;SDS011;53446;50.076;8.198;2023-03-01T03:06:53;20.27;;;8.93;;
66587;SDS011;53446;50.076;8.198;2023-03-01T03:08:54;18.50;;;8.33;;
66587;SDS011;53446;50.076;8.198;2023-03-01T03:10:54;18.45;;;8.60;;
66587;SDS011;53446;50.076;8.198;2023-03-01T03:12:55;17.85;;;8.38;;
66587;SDS011;53446;50.076;8.198;2023-03-01T03:14:57;17.63;;;8.50;;
66587;SDS011;53446;50.076;8.198;2023-03-01T03:16:57;18.67;;;9.45;;
66587;SDS011;53446;50.076;8.198;2023-03-01T03:18:57;19.50;;;9.07;;
66587;SDS011;53446;50.076;8.198;2023-03-01T03:21:07;17.93;;;9.00;;
66587;SDS011;53446;50.076;8.198;2023-03-01T03:23:10;18.05;;;8.63;;
66587;SDS011;53446;50.076;8.198;2023-03-01T03:25:10;17.77;;;9.30;;
66587;SDS011;53446;50.076;8.198;2023-03-01T03:27:11;16.58;;;8.88;;
66587;SDS011;53446;50.076;8.198;2023-03-01T03:29:11;20.37;;;8.43;;
66587;SDS011;53446;50.076;8.198;2023-03-01T03:31:11;16.37;;;8.63;;
66587;SDS011;53446;50.076;8.198;2023-03-01T03:33:12;18.23;;;8.80;;
66587;SDS011;53446;50.076;8.198;2023-03-01T03:35:13;16.70;;;8.55;;
66587;SDS011;53446;50.076;8.198;2023-03-01T03:37:14;17.40;;;8.97;;
66587;SDS011;53446;50.076;8.198;2023-03-01T03:39:34;20.40;;;9.95;;
66587;SDS011;53446;50.076;8.198;2023-03-01T03:41:34;17.70;;;8.77;;
66587;SDS011;53446;50.076;8.198;2023-03-01T03:43:36;19.47;;;9.67;;
66587;SDS011;53446;50.076;8.198;2023-03-01T03:45:37;18.35;;;9.38;;
66587;SDS011;53446;50.076;8.198;2023-03-01T03:47:37;19.47;;;9.40;;
66587;SDS011;53446;50.076;8.198;2023-03-01T03:49:37;19.40;;;8.80;;
66587;SDS011;53446;50.076;8.198;2023-03-01T03:51:38;19.67;;;8.70;;
66587;SDS011;53446;50.076;8.198;2023-03-01T03:53:38;17.60;;;9.45;;
66587;SDS011;53446;50.076;8.198;2023-03-01T03:55:38;19.08;;;9.35;;
66587;SDS011;53446;50.076;8.198;2023-03-01T03:57:40;16.07;;;8.93;;
66587;SDS011;53446;50.076;8.198;2023-03-01T03:59:40;19.48;;;9.02;;
66587;SDS011;53446;50.076;8.198;2023-03-01T04:01:41;19.67;;;9.77;;
66587;SDS011;53446;50.076;8.198;2023-03-01T04:03:41;20.53;;;9.30;;
66587;SDS011;53446;50.076;8.198;2023-03-01T04:05:46;18.45;;;8.93;;
66587;SDS011;53446;50.076;8.198;2023-03-01T04:07:47;18.00;;;9.43;;
66587;SDS011;53446;50.076;8.198;2023-03-01T04:09:47;19.00;;;9.80;;
66587;SDS011;53446;50.076;8.198;2023-03-01T04:11:47;16.33;;;8.73;;
66587;SDS011;53446;50.076;8.198;2023-03-01T04:13:48;20.05;;;9.57;;
66587;SDS011;53446;50.076;8.198;2023-03-01T04:15:49;18.40;;;9.15;;
66587;SDS011;53446;50.076;8.198;2023-03-01T04:17:51;25.58;;;9.80;;
66587;SDS011;53446;50.076;8.198;2023-03-01T04:19:52;22.53;;;10.37;;
66587;SDS011;53446;50.076;8.198;2023-03-01T04:21:53;19.63;;;9.30;;
66587;SDS011;53446;50.076;8.198;2023-03-01T04:23:53;18.87;;;9.97;;
66587;SDS011;53446;50.076;8.198;2023-03-01T04:25:54;18.30;;;9.47;;
66587;SDS011;53446;50.076;8.198;2023-03-01T04:27:56;20.17;;;10.60;;
66587;SDS011;53446;50.076;8.198;2023-03-01T04:29:56;20.50;;;9.80;;
66587;SDS011;53446;50.076;8.198;2023-03-01T04:31:57;18.33;;;9.60;;
66587;SDS011;53446;50.076;8.198;2023-03-01T04:33:57;19.80;;;9.63;;
66587;SDS011;53446;50.076;8.198;2023-03-01T04:35:57;18.97;;;9.20;;
66587;SDS011;53446;50.076;8.198;2023-03-01T04:37:58;20.20;;;10.00;;
66587;SDS011;53446;50.076;8.198;2023-03-01T04:39:58;23.27;;;9.60;;
66587;SDS011;53446;50.076;8.198;2023-03-01T04:41:58;19.77;;;10.13;;
66587;SDS011;53446;50.076;8.198;2023-03-01T04:43:58;16.95;;;9.23;;
66587;SDS011;53446;50.076;8.198;2023-03-01T04:46:00;23.02;;;9.57;;
66587;SDS011;53446;50.076;8.198;2023-03-01T04:48:06;21.83;;;10.48;;
66587;SDS011;53446;50.076;8.198;2023-03-01T04:50:06;17.70;;;9.23;;
66587;SDS011;53446;50.076;8.198;2023-03-01T04:52:07;22.58;;;9.73;;
66587;SDS011;53446;50.076;8.198;2023-03-01T04:54:09;21.05;;;10.25;;
66587;SDS011;53446;50.076;8.198;2023-03-01T04:56:10;22.02;;;10.02;;
66587;SDS011;53446;50.076;8.198;2023-03-01T04:58:11;23.20;;;10.02;;
66587;SDS011;53446;50.076;8.198;2023-03-01T05:00:12;21.35;;;10.52;;
66587;SDS011;53446;50.076;8.198;2023-03-01T05:02:22;23.92;;;10.57;;
66587;SDS011;53446;50.076;8.198;2023-03-01T05:04:23;22.08;;;10.82;;
66587;SDS011;53446;50.076;8.198;2023-03-01T05:06:24;20.55;;;10.23;;
66587;SDS011;53446;50.076;8.198;2023-03-01T05:08:24;19.53;;;9.97;;
66587;SDS011;53446;50.076;8.198;2023-03-01T05:10:25;17.97;;;9.23;;
66587;SDS011;53446;50.076;8.198;2023-03-01T05:12:26;24.33;;;9.38;;
66587;SDS011;53446;50.076;8.198;2023-03-01T05:14:26;21.83;;;10.40;;
66587;SDS011;53446;50.076;8.198;2023-03-01T05:16:28;20.92;;;9.60;;
66587;SDS011;53446;50.076;8.198;2023-03-01T05:18:31;21.50;;;10.43;;
66587;SDS011;53446;50.076;8.198;2023-03-01T05:20:32;20.85;;;10.05;;
66587;SDS011;53446;50.076;8.198;2023-03-01T05:22:36;20.80;;;10.05;;
66587;SDS011;53446;50.076;8.198;2023-03-01T05:24:36;23.57;;;10.40;;
66587;SDS011;53446;50.076;8.198;2023-03-01T05:26:38;19.83;;;9.75;;
66587;SDS011;53446;50.076;8.198;2023-03-01T05:28:40;27.20;;;10.82;;
66587;SDS011;53446;50.076;8.198;2023-03-01T05:30:40;21.50;;;10.10;;
66587;SDS011;53446;50.076;8.198;2023-03-01T05:32:42;19.85;;;9.63;;
66587;SDS011;53446;50.076;8.198;2023-03-01T05:34:44;23.13;;;10.43;;
66587;SDS011;53446;50.076;8.198;2023-03-01T05:36:46;21.10;;;10.15;;
66587;SDS011;53446;50.076;8.198;2023-03-01T05:38:46;22.70;;;10.40;;
66587;SDS011;53446;50.076;8.198;2023-03-01T05:40:47;22.13;;;10.67;;
66587;SDS011;53446;50.076;8.198;2023-03-01T05:42:49;20.55;;;10.20;;
66587;SDS011;53446;50.076;8.198;2023-03-01T05:44:51;22.53;;;10.43;;
66587;SDS011;53446;50.076;8.198;2023-03-01T05:46:51;21.67;;;10.30;;
66587;SDS011;53446;50.076;8.198;2023-03-01T05:48:51;22.48;;;11.52;;
66587;SDS011;53446;50.076;8.198;2023-03-01T05:50:52;21.27;;;10.37;;
66587;SDS011;53446;50.076;8.198;2023-03-01T05:52:57;21.50;;;9.73;;
66587;SDS011;53446;50.076;8.198;2023-03-01T05:54:58;22.50;;;10.85;;
66587;SDS011;53446;50.076;8.198;2023-03-01T05:56:59;21.70;;;9.60;;
66587;SDS011;53446;50.076;8.198;2023-03-01T05:58:59;20.67;;;9.30;;
66587;SDS011;53446;50.076;8.198;2023-03-01T06:01:00;21.33;;;9.65;;
66587;SDS011;53446;50.076;8.198;2023-03-01T06:03:00;21.47;;;9.83;;
66587;SDS011;53446;50.076;8.198;2023-03-01T06:05:01;19.40;;;8.70;;
66587;SDS011;53446;50.076;8.198;2023-03-01T06:07:02;22.17;;;10.00;;
66587;SDS011;53446;50.076;8.198;2023-03-01T06:09:03;19.73;;;8.95;;
66587;SDS011;53446;50.076;8.198;2023-03-01T06:11:04;22.77;;;8.77;;
66587;SDS011;53446;50.076;8.198;2023-03-01T06:13:05;19.52;;;8.65;;
66587;SDS011;53446;50.076;8.198;2023-03-01T06:15:05;21.77;;;9.30;;
66587;SDS011;53446;50.076;8.198;2023-03-01T06:17:07;17.92;;;9.38;;
66587;SDS011;53446;50.076;8.198;2023-03-01T06:19:07;21.53;;;9.10;;
66587;SDS011;53446;50.076;8.198;2023-03-01T06:21:08;21.17;;;10.57;;
66587;SDS011;53446;50.076;8.198;2023-03-01T06:23:08;19.88;;;9.57;;
66587;SDS011;53446;50.076;8.198;2023-03-01T06:25:09;19.57;;;9.47;;
66587;SDS011;53446;50.076;8.198;2023-03-01T06:27:10;20.25;;;9.18;;
66587;SDS011;53446;50.076;8.198;2023-03-01T06:29:10;19.20;;;9.27;;
66587;SDS011;53446;50.076;8.198;2023-03-01T06:31:10;20.73;;;9.97;;
66587;SDS011;53446;50.076;8.198;2023-03-01T06:33:11;23.50;;;10.37;;
66587;SDS011;53446;50.076;8.198;2023-03-01T06:35:12;19.80;;;10.30;;
66587;SDS011;53446;50.076;8.198;2023-03-01T06:37:13;17.13;;;8.80;;
66587;SDS011;53446;50.076;8.198;2023-03-01T06:39:13;24.87;;;9.97;;
66587;SDS011;53446;50.076;8.198;2023-03-01T06:41:14;18.93;;;9.97;;
66587;SDS011;53446;50.076;8.198;2023-03-01T06:43:14;20.50;;;9.77;;
66587;SDS011;53446;50.076;8.198;2023-03-01T06:45:15;20.35;;;9.45;;
66587;SDS011;53446;50.076;8.198;2023-03-01T06:47:15;17.52;;;8.57;;
66587;SDS011;53446;50.076;8.198;2023-03-01T06:49:16;19.10;;;9.50;;
66587;SDS011;53446;50.076;8.198;2023-03-01T06:51:17;22.23;;;9.27;;
66587;SDS011;53446;50.076;8.198;2023-03-01T06:53:17;18.13;;;9.67;;
66587;SDS011;53446;50.076;8.198;2023-03-01T06:55:18;18.27;;;8.83;;
66587;SDS011;53446;50.076;8.198;2023-03-01T06:57:18;23.88;;;10.23;;
66587;SDS011;53446;50.076;8.198;2023-03-01T06:59:18;18.48;;;9.40;;
66587;SDS011;53446;50.076;8.198;2023-03-01T07:01:19;17.83;;;9.13;;
66587;SDS011;53446;50.076;8.198;2023-03-01T07:03:19;18.37;;;9.73;;
66587;SDS011;53446;50.076;8.198;2023-03-01T07:05:19;19.37;;;9.00;;
66587;SDS011;53446;50.076;8.198;2023-03-01T07:07:20;18.27;;;8.43;;
66587;SDS011;53446;50.076;8.198;2023-03-01T07:09:21;17.58;;;8.45;;
66587;SDS011;53446;50.076;8.198;2023-03-01T07:11:22;16.33;;;8.80;;
66587;SDS011;53446;50.076;8.198;2023-03-01T07:13:23;20.85;;;10.20;;
66587;SDS011;53446;50.076;8.198;2023-03-01T07:15:24;18.70;;;9.43;;
66587;SDS011;53446;50.076;8.198;2023-03-01T07:17:24;21.38;;;9.43;;
66587;SDS011;53446;50.076;8.198;2023-03-01T07:19:25;16.65;;;8.50;;
66587;SDS011;53446;50.076;8.198;2023-03-01T07:21:25;18.83;;;9.40;;
66587;SDS011;53446;50.076;8.198;2023-03-01T07:23:25;17.03;;;8.73;;
66587;SDS011;53446;50.076;8.198;2023-03-01T07:25:26;20.23;;;9.83;;
66587;SDS011;53446;50.076;8.198;2023-03-01T07:27:26;15.17;;;7.90;;
66587;SDS011;53446;50.076;8.198;2023-03-01T07:29:26;17.67;;;8.70;;
66587;SDS011;53446;50.076;8.198;2023-03-01T07:31:28;17.08;;;8.73;;
66587;SDS011;53446;50.076;8.198;2023-03-01T07:33:28;20.20;;;9.27;;
66587;SDS011;53446;50.076;8.198;2023-03-01T07:35:29;18.03;;;8.70;;
66587;SDS011;53446;50.076;8.198;2023-03-01T07:37:29;18.38;;;8.82;;
66587;SDS011;53446;50.076;8.198;2023-03-01T07:39:29;17.55;;;8.38;;
66587;SDS011;53446;50.076;8.198;2023-03-01T07:41:30;18.17;;;9.63;;
66587;SDS011;53446;50.076;8.198;2023-03-01T07:43:30;16.80;;;9.07;;
66587;SDS011;53446;50.076;8.198;2023-03-01T07:45:31;17.43;;;8.73;;
66587;SDS011;53446;50.076;8.198;2023-03-01T07:47:31;18.23;;;9.20;;
66587;SDS011;53446;50.076;8.198;2023-03-01T07:49:32;18.77;;;9.43;;
66587;SDS011;53446;50.076;8.198;2023-03-01T07:51:32;19.83;;;9.87;;
66587;SDS011;53446;50.076;8.198;2023-03-01T07:53:33;19.87;;;8.80;;
66587;SDS011;53446;50.076;8.198;2023-03-01T07:55:36;18.98;;;9.32;;
66587;SDS011;53446;50.076;8.198;2023-03-01T07:57:37;18.50;;;8.50;;
66587;SDS011;53446;50.076;8.198;2023-03-01T07:59:37;17.67;;;8.68;;
66587;SDS011;53446;50.076;8.198;2023-03-01T08:01:38;17.90;;;9.03;;
66587;SDS011;53446;50.076;8.198;2023-03-01T08:03:38;18.43;;;8.87;;
66587;SDS011;53446;50.076;8.198;2023-03-01T08:05:39;17.70;;;8.73;;
66587;SDS011;53446;50.076;8.198;2023-03-01T08:07:39;20.98;;;9.43;;
66587;SDS011;53446;50.076;8.198;2023-03-01T08:09:39;18.07;;;8.67;;
66587;SDS011;53446;50.076;8.198;2023-03-01T08:11:40;19.43;;;8.90;;
66587;SDS011;53446;50.076;8.198;2023-03-01T08:13:40;18.30;;;9.00;;
66587;SDS011;53446;50.076;8.198;2023-03-01T08:15:40;17.83;;;9.00;;
66587;SDS011;53446;50.076;8.198;2023-03-01T08:17:40;20.43;;;7.97;;
66587;SDS011;53446;50.076;8.198;2023-03-01T08:19:42;18.57;;;8.60;;
66587;SDS011;53446;50.076;8.198;2023-03-01T08:21:42;16.73;;;8.70;;
66587;SDS011;53446;50.076;8.198;2023-03-01T08:23:43;16.73;;;8.37;;
66587;SDS011;53446;50.076;8.198;2023-03-01T08:25:43;16.95;;;8.77;;
66587;SDS011;53446;50.076;8.198;2023-03-01T08:27:44;18.80;;;8.93;;
66587;SDS011;53446;50.076;8.198;2023-03-01T08:29:44;17.80;;;8.93;;
66587;SDS011;53446;50.076;8.198;2023-03-01T08:31:44;33.40;;;9.33;;
66587;SDS011;53446;50.076;8.198;2023-03-01T08:33:45;17.53;;;9.40;;
66587;SDS011;53446;50.076;8.198;2023-03-01T08:35:50;18.23;;;8.93;;
66587;SDS011;53446;50.076;8.198;2023-03-01T08:37:50;17.77;;;9.30;;
66587;SDS011;53446;50.076;8.198;2023-03-01T08:39:50;17.60;;;9.53;;
66587;SDS011;53446;50.076;8.198;2023-03-01T08:41:51;18.53;;;9.07;;
66587;SDS011;53446;50.076;8.198;2023-03-01T08:43:51;17.77;;;8.60;;
66587;SDS011;53446;50.076;8.198;2023-03-01T08:45:52;16.40;;;8.82;;
66587;SDS011;53446;50.076;8.198;2023-03-01T08:47:53;16.77;;;8.70;;
66587;SDS011;53446;50.076;8.198;2023-03-01T08:49:53;15.98;;;8.90;;
66587;SDS011;53446;50.076;8.198;2023-03-01T08:51:53;16.70;;;9.00;;
66587;SDS011;53446;50.076;8.198;2023-03-01T08:53:54;16.10;;;8.30;;
66587;SDS011;53446;50.076;8.198;2023-03-01T08:55:54;19.13;;;9.50;;
66587;SDS011;53446;50.076;8.198;2023-03-01T08:57:55;18.27;;;8.90;;
66587;SDS011;53446;50.076;8.198;2023-03-01T08:59:55;16.80;;;8.95;;
66587;SDS011;53446;50.076;8.198;2023-03-01T09:01:56;16.63;;;8.90;;
66587;SDS011;53446;50.076;8.198;2023-03-01T09:03:56;18.27;;;9.03;;
66587;SDS011;53446;50.076;8.198;2023-03-01T09:05:59;19.60;;;9.88;;
66587;SDS011;53446;50.076;8.198;2023-03-01T09:08:01;19.90;;;10.40;;
66587;SDS011;53446;50.076;8.198;2023-03-01T09:10:01;16.97;;;9.37;;
66587;SDS011;53446;50.076;8.198;2023-03-01T09:12:02;16.47;;;9.30;;
66587;SDS011;53446;50.076;8.198;2023-03-01T09:14:04;17.05;;;9.80;;
66587;SDS011;53446;50.076;8.198;2023-03-01T09:16:08;19.87;;;9.90;;
66587;SDS011;53446;50.076;8.198;2023-03-01T09:18:08;17.63;;;9.57;;
66587;SDS011;53446;50.076;8.198;2023-03-01T09:20:09;18.87;;;10.00;;
66587;SDS011;53446;50.076;8.198;2023-03-01T09:22:10;17.40;;;9.25;;
66587;SDS011;53446;50.076;8.198;2023-03-01T09:24:13;16.43;;;9.43;;
66587;SDS011;53446;50.076;8.198;2023-03-01T09:26:15;19.92;;;9.52;;
66587;SDS011;53446;50.076;8.198;2023-03-01T09:28:21;18.77;;;10.45;;
66587;SDS011;53446;50.076;8.198;2023-03-01T09:30:23;20.50;;;10.07;;
66587;SDS011;53446;50.076;8.198;2023-03-01T09:32:24;21.33;;;10.20;;
66587;SDS011;53446;50.076;8.198;2023-03-01T09:34:24;19.05;;;10.10;;
66587;SDS011;53446;50.076;8.198;2023-03-01T09:36:24;20.03;;;10.17;;
66587;SDS011;53446;50.076;8.198;2023-03-01T09:38:25;19.47;;;10.13;;
66587;SDS011;53446;50.076;8.198;2023-03-01T09:40:26;19.50;;;10.43;;
66587;SDS011;53446;50.076;8.198;2023-03-01T09:42:27;19.92;;;10.75;;
66587;SDS011;53446;50.076;8.198;2023-03-01T09:44:39;19.63;;;9.93;;
66587;SDS011;53446;50.076;8.198;2023-03-01T09:46:43;20.60;;;10.25;;
66587;SDS011;53446;50.076;8.198;2023-03-01T09:50:51;17.75;;;9.82;;
66587;SDS011;53446;50.076;8.198;2023-03-01T09:53:00;21.77;;;10.10;;
66587;SDS011;53446;50.076;8.198;2023-03-01T09:55:04;17.77;;;9.02;;
66587;SDS011;53446;50.076;8.198;2023-03-01T09:59:23;18.30;;;9.93;;
66587;SDS011;53446;50.076;8.198;2023-03-01T10:03:36;21.60;;;10.90;;
66587;SDS011;53446;50.076;8.198;2023-03-01T10:05:50;22.25;;;11.13;;
66587;SDS011;53446;50.076;8.198;2023-03-01T10:10:08;19.95;;;10.27;;
66587;SDS011;53446;50.076;8.198;2023-03-01T10:12:12;19.83;;;10.73;;
66587;SDS011;53446;50.076;8.198;2023-03-01T10:16:23;18.30;;;9.85;;
66587;SDS011;53446;50.076;8.198;2023-03-01T10:18:31;18.48;;;9.70;;
66587;SDS011;53446;50.076;8.198;2023-03-01T10:20:37;22.95;;;10.00;;
66587;SDS011;53446;50.076;8.198;2023-03-01T10:22:40;20.95;;;9.68;;
66587;SDS011;53446;50.076;8.198;2023-03-01T10:24:40;18.17;;;10.00;;
66587;SDS011;53446;50.076;8.198;2023-03-01T10:29:03;18.20;;;10.23;;
66587;SDS011;53446;50.076;8.198;2023-03-01T10:31:15;19.55;;;9.68;;
66587;SDS011;53446;50.076;8.198;2023-03-01T10:33:21;20.05;;;10.52;;
66587;SDS011;53446;50.076;8.198;2023-03-01T10:35:33;20.15;;;9.52;;
66587;SDS011;53446;50.076;8.198;2023-03-01T10:37:33;18.88;;;9.45;;
66587;SDS011;53446;50.076;8.198;2023-03-01T10:39:35;18.13;;;9.77;;
66587;SDS011;53446;50.076;8.198;2023-03-01T10:41:36;18.23;;;9.15;;
66587;SDS011;53446;50.076;8.198;2023-03-01T10:45:59;18.80;;;9.90;;
66587;SDS011;53446;50.076;8.198;2023-03-01T10:48:03;19.40;;;9.50;;
66587;SDS011;53446;50.076;8.198;2023-03-01T10:50:19;18.73;;;9.65;;
66587;SDS011;53446;50.076;8.198;2023-03-01T10:52:24;18.90;;;10.13;;
66587;SDS011;53446;50.076;8.198;2023-03-01T10:54:28;18.10;;;9.68;;
66587;SDS011;53446;50.076;8.198;2023-03-01T10:56:29;19.17;;;9.70;;
66587;SDS011;53446;50.076;8.198;2023-03-01T10:59:02;17.05;;;9.27;;
66587;SDS011;53446;50.076;8.198;2023-03-01T11:01:05;18.42;;;10.27;;
66587;SDS011;53446;50.076;8.198;2023-03-01T11:03:25;16.90;;;9.68;;
66587;SDS011;53446;50.076;8.198;2023-03-01T11:05:26;18.27;;;9.88;;
66587;SDS011;53446;50.076;8.198;2023-03-01T11:07:28;15.40;;;9.27;;
66587;SDS011;53446;50.076;8.198;2023-03-01T11:09:32;19.33;;;9.80;;
66587;SDS011;53446;50.076;8.198;2023-03-01T11:11:37;15.30;;;9.07;;
66587;SDS011;53446;50.076;8.198;2023-03-01T11:13:38;19.40;;;10.17;;
66587;SDS011;53446;50.076;8.198;2023-03-01T11:16:10;15.23;;;8.48;;
66587;SDS011;53446;50.076;8.198;2023-03-01T11:18:18;14.73;;;8.90;;
66587;SDS011;53446;50.076;8.198;2023-03-01T11:20:24;18.02;;;9.15;;
66587;SDS011;53446;50.076;8.198;2023-03-01T11:22:26;15.77;;;9.32;;
66587;SDS011;53446;50.076;8.198;2023-03-01T11:24:46;15.63;;;9.77;;
66587;SDS011;53446;50.076;8.198;2023-03-01T11:26:51;15.82;;;9.27;;
66587;SDS011;53446;50.076;8.198;2023-03-01T11:28:53;14.65;;;9.20;;
66587;SDS011;53446;50.076;8.198;2023-03-01T11:30:56;13.88;;;8.98;;
66587;SDS011;53446;50.076;8.198;2023-03-01T11:33:05;12.85;;;8.60;;
66587;SDS011;53446;50.076;8.198;2023-03-01T11:35:10;14.43;;;9.20;;
66587;SDS011;53446;50.076;8.198;2023-03-01T11:37:26;13.93;;;9.45;;
66587;SDS011;53446;50.076;8.198;2023-03-01T11:39:37;14.73;;;10.10;;
66587;SDS011;53446;50.076;8.198;2023-03-01T11:41:52;13.80;;;9.65;;
66587;SDS011;53446;50.076;8.198;2023-03-01T11:44:03;13.52;;;8.90;;
66587;SDS011;53446;50.076;8.198;2023-03-01T11:57:18;13.23;;;9.00;;
66587;SDS011;53446;50.076;8.198;2023-03-01T11:59:35;14.20;;;9.95;;
66587;SDS011;53446;50.076;8.198;2023-03-01T12:02:17;15.60;;;10.70;;
66587;SDS011;53446;50.076;8.198;2023-03-01T12:05:05;12.32;;;9.48;;
66587;SDS011;53446;50.076;8.198;2023-03-01T12:07:24;14.45;;;10.40;;
66587;SDS011;53446;50.076;8.198;2023-03-01T12:11:56;14.07;;;10.15;;
66587;SDS011;53446;50.076;8.198;2023-03-01T12:16:15;14.52;;;9.68;;
66587;SDS011;53446;50.076;8.198;2023-03-01T12:18:27;13.05;;;9.40;;
66587;SDS011;53446;50.076;8.198;2023-03-01T12:20:58;12.05;;;9.05;;
66587;SDS011;53446;50.076;8.198;2023-03-01T12:23:09;12.05;;;9.02;;
66587;SDS011;53446;50.076;8.198;2023-03-01T12:25:16;12.13;;;8.90;;
66587;SDS011;53446;50.076;8.198;2023-03-01T12:40:16;12.27;;;9.48;;
66587;SDS011;53446;50.076;8.198;2023-03-01T12:44:32;11.95;;;9.20;;
66587;SDS011;53446;50.076;8.198;2023-03-01T12:49:31;11.13;;;8.03;;
66587;SDS011;53446;50.076;8.198;2023-03-01T12:51:34;12.35;;;8.77;;
66587;SDS011;53446;50.076;8.198;2023-03-01T12:53:57;10.77;;;8.88;;
66587;SDS011;53446;50.076;8.198;2023-03-01T12:56:06;10.77;;;8.40;;
66587;SDS011;53446;50.076;8.198;2023-03-01T13:00:32;10.43;;;8.17;;
66587;SDS011;53446;50.076;8.198;2023-03-01T13:02:44;11.65;;;8.27;;